createdAt,value
2023-03-21T00:01:53.126Z,9.8
2023-03-21T00:03:06.019Z,9.8
2023-03-21T00:04:18.856Z,9.8
2023-03-21T00:05:32.214Z,9.8
2023-03-21T00:06:45.032Z,9.8
2023-03-21T00:07:58.718Z,9.8
2023-03-21T00:10:33.248Z,9.8
2023-03-21T00:11:36.830Z,9.8
2023-03-21T00:12:49.831Z,9.8
2023-03-21T00:14:03.037Z,9.8
2023-03-21T00:15:15.966Z,9.8
2023-03-21T00:17:42.091Z,9.8
2023-03-21T00:18:56.025Z,9.8
2023-03-21T00:20:09.215Z,9.8
2023-03-21T00:21:40.883Z,9.8
2023-03-21T00:22:34.074Z,9.8
2023-03-21T00:23:46.960Z,9.8
2023-03-21T00:24:59.949Z,9.8
2023-03-21T00:26:12.752Z,9.8
2023-03-21T00:28:39.266Z,9.8
2023-03-21T00:29:52.200Z,9.8
2023-03-21T00:31:05.081Z,9.8
2023-03-21T00:33:31.072Z,9.8
2023-03-21T00:36:03.170Z,9.8
2023-03-21T00:37:10.345Z,9.8
2023-03-21T00:40:49.417Z,9.8
2023-03-21T00:42:02.105Z,9.8
2023-03-21T00:43:14.822Z,9.8
2023-03-21T00:44:27.965Z,9.8
2023-03-21T00:47:06.098Z,9.8
2023-03-21T00:48:07.186Z,9.8
2023-03-21T00:49:20.012Z,9.8
2023-03-21T00:50:33.092Z,9.8
2023-03-21T00:51:46.110Z,9.8
2023-03-21T00:55:25.072Z,9.8
2023-03-21T00:56:38.074Z,9.8
2023-03-21T00:57:59.758Z,9.8
2023-03-21T01:00:17.127Z,9.8
2023-03-21T01:01:30.226Z,9.8
2023-03-21T01:03:56.049Z,9.8
2023-03-21T01:05:09.079Z,9.8
2023-03-21T01:06:22.038Z,9.8
2023-03-21T01:07:34.957Z,9.8
2023-03-21T01:08:52.896Z,9.8
2023-03-21T01:10:01.088Z,9.8
2023-03-21T01:11:14.052Z,9.8
2023-03-21T01:12:27.052Z,9.8
2023-03-21T01:13:44.136Z,9.8
2023-03-21T01:14:53.229Z,9.8
2023-03-21T01:16:05.775Z,9.8
2023-03-21T01:17:19.061Z,9.8
2023-03-21T01:18:32.071Z,9.8
2023-03-21T01:20:58.102Z,9.8
2023-03-21T01:22:11.057Z,9.8
2023-03-21T01:23:23.942Z,9.8
2023-03-21T01:25:49.964Z,9.8
2023-03-21T01:27:02.923Z,9.8
2023-03-21T01:28:16.098Z,9.8
2023-03-21T01:30:42.245Z,9.8
2023-03-21T01:35:40.908Z,9.8
2023-03-21T01:36:47.127Z,9.8
2023-03-21T01:37:59.907Z,9.8
2023-03-21T01:39:12.948Z,9.8
2023-03-21T01:41:43.677Z,9.8
2023-03-21T01:44:05.013Z,9.8
2023-03-21T01:45:17.772Z,9.8
2023-03-21T01:46:34.760Z,9.8
2023-03-21T01:48:57.008Z,9.8
2023-03-21T01:50:10.128Z,9.8
2023-03-21T01:51:22.839Z,9.8
2023-03-21T01:52:37.740Z,9.8
2023-03-21T01:53:49.139Z,9.8
2023-03-21T01:56:14.943Z,9.8
2023-03-21T01:57:32.544Z,9.8
2023-03-21T01:58:41.114Z,9.8
2023-03-21T01:59:53.937Z,9.8
2023-03-21T02:01:06.817Z,9.8
2023-03-21T02:02:19.955Z,9.8
2023-03-21T02:03:35.891Z,10
2023-03-21T02:04:46.071Z,10
2023-03-21T02:05:59.042Z,10
2023-03-21T02:07:12.133Z,10
2023-03-21T02:08:36.704Z,10
2023-03-21T02:09:38.270Z,10
2023-03-21T02:10:51.067Z,10
2023-03-21T02:12:03.945Z,10
2023-03-21T02:13:17.235Z,10
2023-03-21T02:14:30.110Z,10
2023-03-21T02:15:43.139Z,10
2023-03-21T02:18:09.068Z,10
2023-03-21T02:19:29.535Z,10
2023-03-21T02:20:35.088Z,10
2023-03-21T02:21:48.052Z,10
2023-03-21T02:23:00.878Z,10
2023-03-21T02:24:15.535Z,10
2023-03-21T02:25:26.976Z,10
2023-03-21T02:26:42.840Z,10
2023-03-21T02:27:52.875Z,10
2023-03-21T02:29:05.930Z,10
2023-03-21T02:30:26.768Z,10
2023-03-21T02:31:32.145Z,9.9
2023-03-21T02:32:44.954Z,9.8
2023-03-21T02:35:11.067Z,9.8
2023-03-21T02:36:24.046Z,9.8
2023-03-21T02:37:38.524Z,9.8
2023-03-21T02:38:49.985Z,9.8
2023-03-21T02:40:02.808Z,9.8
2023-03-21T02:41:18.895Z,9.8
2023-03-21T02:43:42.154Z,9.8
2023-03-21T02:44:55.117Z,9.8
2023-03-21T02:46:08.175Z,9.8
2023-03-21T02:49:47.622Z,9.8
2023-03-21T02:50:59.799Z,9.8
2023-03-21T02:53:26.130Z,9.8
2023-03-21T02:54:47.747Z,9.8
2023-03-21T02:55:51.951Z,9.8
2023-03-21T02:57:05.174Z,9.8
2023-03-21T02:58:18.065Z,9.8
2023-03-21T03:00:43.815Z,9.8
2023-03-21T03:01:56.984Z,9.8
2023-03-21T03:03:16.023Z,9.8
2023-03-21T03:04:23.072Z,9.8
2023-03-21T03:05:36.112Z,9.8
2023-03-21T03:08:02.187Z,9.9
2023-03-21T03:10:28.090Z,9.7
2023-03-21T03:11:40.827Z,9.7
2023-03-21T03:12:54.174Z,9.7
2023-03-21T03:15:20.029Z,9.7
2023-03-21T03:16:33.177Z,9.7
2023-03-21T03:17:46.248Z,9.7
2023-03-21T03:18:58.932Z,9.7
2023-03-21T03:21:25.153Z,9.7
2023-03-21T03:22:37.877Z,9.7
2023-03-21T03:23:51.237Z,9.7
2023-03-21T03:25:16.303Z,9.7
2023-03-21T03:26:17.153Z,9.7
2023-03-21T03:27:29.843Z,9.6
2023-03-21T03:28:43.184Z,9.6
2023-03-21T03:31:10.167Z,9.6
2023-03-21T03:32:21.886Z,9.6
2023-03-21T03:33:35.173Z,9.4
2023-03-21T03:34:48.180Z,9.4
2023-03-21T03:36:06.307Z,9.4
2023-03-21T03:37:14.563Z,9.4
2023-03-21T03:38:27.201Z,9.4
2023-03-21T03:39:39.991Z,9.5
2023-03-21T03:40:52.830Z,9.5
2023-03-21T03:42:18.204Z,9.3
2023-03-21T03:43:18.996Z,9.3
2023-03-21T03:44:32.171Z,9.3
2023-03-21T03:45:45.190Z,9.3
2023-03-21T03:46:58.280Z,9.3
2023-03-21T03:48:11.184Z,9.3
2023-03-21T03:49:24.124Z,9.3
2023-03-21T03:50:37.249Z,9.2
2023-03-21T03:51:50.632Z,9.2
2023-03-21T03:53:07.062Z,9.2
2023-03-21T03:54:16.169Z,9.2
2023-03-21T03:55:29.194Z,9.2
2023-03-21T03:57:55.814Z,9.2
2023-03-21T03:59:08.194Z,9.2
2023-03-21T04:00:21.201Z,9.2
2023-03-21T04:02:47.009Z,9.2
2023-03-21T04:04:12.139Z,9.2
2023-03-21T04:05:13.032Z,9.2
2023-03-21T04:06:26.172Z,9.2
2023-03-21T04:07:39.107Z,9.2
2023-03-21T04:10:04.939Z,9.2
2023-03-21T04:11:18.141Z,9.2
2023-03-21T04:12:30.912Z,9.2
2023-03-21T04:13:44.156Z,9.2
2023-03-21T04:15:08.109Z,9.2
2023-03-21T04:16:10.218Z,9.2
2023-03-21T04:17:23.175Z,9.2
2023-03-21T04:18:35.881Z,9.2
2023-03-21T04:19:49.272Z,9.2
2023-03-21T04:21:01.851Z,9.2
2023-03-21T04:22:14.890Z,9.2
2023-03-21T04:23:28.031Z,9.2
2023-03-21T04:25:56.889Z,9.2
2023-03-21T04:28:20.247Z,9.2
2023-03-21T04:30:58.680Z,9.2
2023-03-21T04:31:59.259Z,9.2
2023-03-21T04:33:12.097Z,9.2
2023-03-21T04:34:25.131Z,9.2
2023-03-21T04:35:38.199Z,9.2
2023-03-21T04:38:04.215Z,9.2
2023-03-21T04:39:17.047Z,9.2
2023-03-21T04:40:30.193Z,9.2
2023-03-21T04:41:43.210Z,9.2
2023-03-21T04:42:56.120Z,9.2
2023-03-21T04:46:35.020Z,9.2
2023-03-21T04:47:48.260Z,9.2
2023-03-21T04:49:01.215Z,9.2
2023-03-21T04:50:14.100Z,9.2
2023-03-21T04:51:27.659Z,9.2
2023-03-21T04:52:40.217Z,9.2
2023-03-21T04:55:06.132Z,9.2
2023-03-21T04:56:19.220Z,9.2
2023-03-21T04:57:32.250Z,9.2
2023-03-21T04:59:58.207Z,9.2
2023-03-21T05:02:24.148Z,9.2
2023-03-21T05:03:37.037Z,9.2
2023-03-21T05:06:03.275Z,9.2
2023-03-21T05:07:16.928Z,9.2
2023-03-21T05:08:30.336Z,9.2
2023-03-21T05:09:42.244Z,9.2
2023-03-21T05:10:55.280Z,9.2
2023-03-21T05:12:08.261Z,9.2
2023-03-21T05:13:21.053Z,9.2
2023-03-21T05:14:34.138Z,9.2
2023-03-21T05:15:47.276Z,9.2
2023-03-21T05:17:00.280Z,9.2
2023-03-21T05:18:13.223Z,9.2
2023-03-21T05:19:26.090Z,9.2
2023-03-21T05:20:39.057Z,9.2
2023-03-21T05:21:52.242Z,9.2
2023-03-21T05:23:05.248Z,9.2
2023-03-21T05:24:20.584Z,9.2
2023-03-21T05:25:31.211Z,9.2
2023-03-21T05:26:44.140Z,9.2
2023-03-21T05:27:56.875Z,9.2
2023-03-21T05:29:10.191Z,9.2
2023-03-21T05:30:23.199Z,9.2
2023-03-21T05:31:36.213Z,9.3
2023-03-21T05:32:49.128Z,9.3
2023-03-21T05:34:02.228Z,9.3
2023-03-21T05:35:15.195Z,9.3
2023-03-21T05:36:28.356Z,9.3
2023-03-21T05:37:41.195Z,9.2
2023-03-21T05:38:54.322Z,9.2
2023-03-21T05:40:07.324Z,9.2
2023-03-21T05:41:19.810Z,9.2
2023-03-21T05:42:32.804Z,9.2
2023-03-21T05:43:45.789Z,9.2
2023-03-21T05:44:58.996Z,9.2
2023-03-21T05:46:11.810Z,9.2
2023-03-21T05:47:24.800Z,9.2
2023-03-21T05:48:37.822Z,9.2
2023-03-21T05:49:50.808Z,9.2
2023-03-21T05:51:03.794Z,9.2
2023-03-21T05:52:16.803Z,9.2
2023-03-21T05:53:29.800Z,9.2
2023-03-21T05:54:42.809Z,9.2
2023-03-21T05:58:22.423Z,9.2
2023-03-21T05:59:34.821Z,9.2
2023-03-21T06:02:00.756Z,9.2
2023-03-21T06:03:13.677Z,9.2
2023-03-21T06:04:26.840Z,9.2
2023-03-21T06:05:40.142Z,9.2
2023-03-21T06:06:52.884Z,9.2
2023-03-21T06:08:05.804Z,9.2
2023-03-21T06:09:18.684Z,9.2
2023-03-21T06:10:32.017Z,9.2
2023-03-21T06:11:44.522Z,9.2
2023-03-21T06:12:57.806Z,9.2
2023-03-21T06:15:24.278Z,9.2
2023-03-21T06:16:36.609Z,9.2
2023-03-21T06:19:02.845Z,9.2
2023-03-21T06:20:15.800Z,9.2
2023-03-21T06:21:28.777Z,9.2
2023-03-21T06:22:42.211Z,9.2
2023-03-21T06:23:54.643Z,9.2
2023-03-21T06:25:08.025Z,9.2
2023-03-21T06:27:33.775Z,9.2
2023-03-21T06:28:47.376Z,9.2
2023-03-21T06:30:00.401Z,9.2
2023-03-21T06:32:25.531Z,9.2
2023-03-21T06:33:38.954Z,9.2
2023-03-21T06:34:52.354Z,9.2
2023-03-21T06:36:04.857Z,9.2
2023-03-21T06:37:17.850Z,9.2
2023-03-21T06:38:31.316Z,9.2
2023-03-21T06:39:43.675Z,9.2
2023-03-21T06:40:56.677Z,9.2
2023-03-21T06:42:09.545Z,9.3
2023-03-21T06:43:23.005Z,9.3
2023-03-21T06:44:35.996Z,9.3
2023-03-21T06:45:48.910Z,9.3
2023-03-21T06:47:01.855Z,9.3
2023-03-21T06:48:14.815Z,9.3
2023-03-21T06:49:28.099Z,9.3
2023-03-21T06:50:40.795Z,9.3
2023-03-21T06:51:53.788Z,9.3
2023-03-21T06:53:06.796Z,9.3
2023-03-21T06:54:19.922Z,9.3
2023-03-21T06:55:32.798Z,9.3
2023-03-21T06:56:45.821Z,9.3
2023-03-21T06:57:58.826Z,9.3
2023-03-21T06:59:11.820Z,9.3
2023-03-21T07:00:24.987Z,9.3
2023-03-21T07:01:37.828Z,9.5
2023-03-21T07:02:51.340Z,9.5
2023-03-21T07:04:03.990Z,9.4
2023-03-21T07:05:16.839Z,9.4
2023-03-21T07:06:30.094Z,9.4
2023-03-21T07:07:43.339Z,9.4
2023-03-21T07:08:55.880Z,9.4
2023-03-21T07:10:08.624Z,9.5
2023-03-21T07:11:22.479Z,9.6
2023-03-21T07:12:35.143Z,9.6
2023-03-21T07:13:49.013Z,9.6
2023-03-21T07:15:00.520Z,9.6
2023-03-21T07:16:14.048Z,9.6
2023-03-21T07:17:26.845Z,9.6
2023-03-21T07:21:07.746Z,9.6
2023-03-21T07:22:19.120Z,9.7
2023-03-21T07:23:31.752Z,9.7
2023-03-21T07:24:45.961Z,9.7
2023-03-21T07:25:57.742Z,9.7
2023-03-21T07:28:25.737Z,9.7
2023-03-21T07:29:37.118Z,9.7
2023-03-21T07:30:50.150Z,9.7
2023-03-21T07:38:07.883Z,9.8
2023-03-21T07:39:20.698Z,9.8
2023-03-21T07:40:34.203Z,9.8
2023-03-21T07:41:46.851Z,9.8
2023-03-21T07:42:59.932Z,9.8
2023-03-21T07:44:13.078Z,9.8
2023-03-21T07:45:25.716Z,9.8
2023-03-21T07:46:38.718Z,9.8
2023-03-21T07:47:52.093Z,9.8
2023-03-21T07:50:17.963Z,10
2023-03-21T07:51:30.640Z,10
2023-03-21T07:53:56.898Z,10
2023-03-21T07:55:09.909Z,10
2023-03-21T07:56:23.069Z,10
2023-03-21T07:57:35.852Z,10
2023-03-21T07:58:48.734Z,10
2023-03-21T08:00:01.820Z,10
2023-03-21T08:01:15.370Z,10
2023-03-21T08:02:28.096Z,9.9
2023-03-21T08:03:40.937Z,9.8
2023-03-21T08:04:53.870Z,9.8
2023-03-21T08:06:06.857Z,9.8
2023-03-21T08:07:19.919Z,10
2023-03-21T08:08:32.997Z,10
2023-03-21T08:09:45.858Z,10
2023-03-21T08:10:58.851Z,10
2023-03-21T08:12:11.917Z,10
2023-03-21T08:13:24.839Z,9.8
2023-03-21T08:14:37.857Z,9.8
2023-03-21T08:15:51.020Z,9.8
2023-03-21T08:17:03.845Z,9.8
2023-03-21T08:18:16.865Z,9.8
2023-03-21T08:19:29.808Z,9.8
2023-03-21T08:20:42.854Z,9.8
2023-03-21T08:21:55.891Z,9.8
2023-03-21T08:23:08.701Z,9.8
2023-03-21T08:24:22.369Z,9.8
2023-03-21T08:25:34.883Z,9.8
2023-03-21T08:26:47.711Z,9.7
2023-03-21T08:28:00.884Z,9.7
2023-03-21T08:29:13.841Z,9.7
2023-03-21T08:30:27.011Z,9.7
2023-03-21T08:31:41.154Z,9.7
2023-03-21T08:32:53.051Z,9.7
2023-03-21T08:34:05.878Z,9.7
2023-03-21T08:35:18.892Z,9.7
2023-03-21T08:36:31.837Z,9.7
2023-03-21T08:37:44.806Z,9.7
2023-03-21T08:38:57.865Z,9.7
2023-03-21T08:40:11.015Z,9.7
2023-03-21T08:41:23.876Z,9.7
2023-03-21T08:42:36.885Z,9.7
2023-03-21T08:43:49.809Z,9.7
2023-03-21T08:45:02.876Z,9.7
2023-03-21T08:46:15.956Z,9.7
2023-03-21T08:47:28.752Z,9.7
2023-03-21T08:48:42.402Z,9.7
2023-03-21T08:49:55.435Z,9.7
2023-03-21T08:51:07.550Z,9.7
2023-03-21T08:52:20.870Z,9.7
2023-03-21T08:53:33.904Z,9.7
2023-03-21T08:54:47.037Z,9.7
2023-03-21T08:55:59.849Z,9.7
2023-03-21T08:57:12.785Z,9.6
2023-03-21T08:58:25.976Z,9.6
2023-03-21T08:59:38.878Z,9.6
2023-03-21T09:00:51.863Z,9.6
2023-03-21T09:02:04.901Z,9.7
2023-03-21T09:03:17.911Z,9.7
2023-03-21T09:04:30.906Z,9.7
2023-03-21T09:05:43.871Z,9.7
2023-03-21T09:06:56.895Z,9.7
2023-03-21T09:08:09.851Z,9.7
2023-03-21T09:09:22.887Z,9.7
2023-03-21T09:10:35.876Z,9.7
2023-03-21T09:11:49.562Z,9.7
2023-03-21T09:13:01.921Z,9.7
2023-03-21T09:14:15.019Z,9.8
2023-03-21T09:15:28.364Z,9.8
2023-03-21T09:16:40.900Z,9.8
2023-03-21T09:17:53.866Z,10
2023-03-21T09:19:06.864Z,10
2023-03-21T09:20:19.846Z,10
2023-03-21T09:21:32.994Z,10
2023-03-21T09:22:45.911Z,10.1
2023-03-21T09:23:58.936Z,10.2
2023-03-21T09:25:11.931Z,10.2
2023-03-21T09:26:24.923Z,10.2
2023-03-21T09:27:37.917Z,10.1
2023-03-21T09:28:50.864Z,10.1
2023-03-21T09:30:03.876Z,10.1
2023-03-21T09:31:16.914Z,10.1
2023-03-21T09:32:30.087Z,10.2
2023-03-21T09:33:42.908Z,10.2
2023-03-21T09:34:55.894Z,10.2
2023-03-21T09:36:08.982Z,10.2
2023-03-21T09:37:21.918Z,10.2
2023-03-21T09:38:34.929Z,10.2
2023-03-21T09:39:47.912Z,10.2
2023-03-21T09:41:00.956Z,10.2
2023-03-21T09:42:15.306Z,10.3
2023-03-21T09:43:26.953Z,10.4
2023-03-21T09:44:40.378Z,10.4
2023-03-21T09:45:52.915Z,10.4
2023-03-21T09:47:06.028Z,10.4
2023-03-21T09:48:18.982Z,10.4
2023-03-21T09:49:31.780Z,10.4
2023-03-21T09:50:44.930Z,10.4
2023-03-21T09:51:57.926Z,10.4
2023-03-21T09:53:10.902Z,10.4
2023-03-21T09:54:24.112Z,10.4
2023-03-21T09:55:37.137Z,10.4
2023-03-21T09:56:49.874Z,10.4
2023-03-21T09:58:02.952Z,10.4
2023-03-21T09:59:15.986Z,10.4
2023-03-21T10:00:28.925Z,10.3
2023-03-21T10:01:41.996Z,10.4
2023-03-21T10:02:57.343Z,10.4
2023-03-21T10:04:07.992Z,10.5
2023-03-21T10:05:20.876Z,10.5
2023-03-21T10:06:33.875Z,10.5
2023-03-21T10:07:46.894Z,10.5
2023-03-21T10:08:59.855Z,10.5
2023-03-21T10:10:12.944Z,10.5
2023-03-21T10:11:25.890Z,10.7
2023-03-21T10:12:39.058Z,10.7
2023-03-21T10:13:51.907Z,10.7
2023-03-21T10:15:05.465Z,10.7
2023-03-21T10:16:18.031Z,10.7
2023-03-21T10:17:30.948Z,10.9
2023-03-21T10:18:43.765Z,10.9
2023-03-21T10:19:56.901Z,11
2023-03-21T10:21:09.878Z,11.1
2023-03-21T10:22:24.298Z,11
2023-03-21T10:23:37.513Z,11
2023-03-21T10:24:49.544Z,11
2023-03-21T10:26:01.955Z,11
2023-03-21T10:27:14.859Z,11
2023-03-21T10:32:07.184Z,11.1
2023-03-21T10:33:20.062Z,10.9
2023-03-21T10:34:32.956Z,10.9
2023-03-21T10:38:16.964Z,10.9
2023-03-21T10:39:25.677Z,10.9
2023-03-21T10:40:37.896Z,10.9
2023-03-21T10:41:50.871Z,10.9
2023-03-21T10:43:04.571Z,10.9
2023-03-21T10:46:44.289Z,11
2023-03-21T10:47:56.027Z,11.1
2023-03-21T10:49:08.860Z,11.1
2023-03-21T10:50:21.881Z,11
2023-03-21T10:51:39.749Z,11.1
2023-03-21T10:54:02.560Z,11.2
2023-03-21T10:55:14.005Z,11.2
2023-03-21T10:56:26.949Z,11.2
2023-03-21T10:57:39.894Z,11.2
2023-03-21T11:01:20.947Z,11.2
2023-03-21T11:02:32.312Z,11.2
2023-03-21T11:03:44.870Z,11.3
2023-03-21T11:04:57.897Z,11.3
2023-03-21T11:06:10.876Z,11.3
2023-03-21T11:08:39.339Z,11.3
2023-03-21T11:09:53.462Z,11.4
2023-03-21T11:11:02.780Z,11.4
2023-03-21T11:12:16.064Z,11.4
2023-03-21T11:13:28.901Z,11.6
2023-03-21T11:17:09.119Z,11.5
2023-03-21T11:18:20.898Z,11.4
2023-03-21T11:19:33.901Z,11.4
2023-03-21T11:20:46.922Z,11.4
2023-03-21T11:22:05.931Z,11.4
2023-03-21T11:24:28.001Z,11.6
2023-03-21T11:25:39.559Z,11.6
2023-03-21T11:26:52.097Z,11.6
2023-03-21T11:28:04.931Z,11.6
2023-03-21T11:29:18.438Z,11.7
2023-03-21T11:32:57.241Z,11.7
2023-03-21T11:34:09.952Z,11.7
2023-03-21T11:35:22.974Z,11.7
2023-03-21T11:36:35.947Z,11.7
2023-03-21T11:40:15.727Z,11.8
2023-03-21T11:41:27.962Z,11.8
2023-03-21T11:42:40.935Z,11.8
2023-03-21T11:43:53.968Z,11.8
2023-03-21T11:47:34.148Z,11.8
2023-03-21T11:48:46.001Z,11.8
2023-03-21T11:51:11.698Z,11.8
2023-03-21T11:54:52.488Z,11.8
2023-03-21T11:58:29.786Z,11.8
2023-03-21T11:59:42.888Z,11.8
2023-03-21T12:02:10.911Z,11.7
2023-03-21T12:03:22.267Z,11.7
2023-03-21T12:04:35.014Z,11.7
2023-03-21T12:05:47.901Z,11.7
2023-03-21T12:07:00.758Z,11.7
2023-03-21T12:08:18.913Z,11.7
2023-03-21T12:10:40.663Z,11.7
2023-03-21T12:11:52.586Z,11.7
2023-03-21T12:13:06.487Z,11.7
2023-03-21T12:14:18.913Z,11.6
2023-03-21T12:17:59.124Z,11.6
2023-03-21T12:19:11.659Z,11.6
2023-03-21T12:20:24.095Z,11.6
2023-03-21T12:21:37.316Z,11.4
2023-03-21T12:24:07.133Z,11.4
2023-03-21T12:25:17.533Z,11.4
2023-03-21T12:26:28.872Z,11.4
2023-03-21T12:27:41.766Z,11.3
2023-03-21T12:28:54.850Z,11.3
2023-03-21T12:30:07.808Z,11.2
2023-03-21T12:32:38.915Z,11.1
2023-03-21T12:33:47.742Z,11.1
2023-03-21T12:34:59.929Z,11.1
2023-03-21T12:36:12.933Z,11.1
2023-03-21T12:37:25.913Z,11.1
2023-03-21T12:41:05.720Z,10.9
2023-03-21T12:42:17.754Z,10.9
2023-03-21T12:43:31.308Z,10.9
2023-03-21T12:44:43.894Z,10.9
2023-03-21T12:47:13.296Z,10.9
2023-03-21T12:48:24.214Z,10.9
2023-03-21T12:49:35.775Z,11.1
2023-03-21T12:50:48.898Z,11.1
2023-03-21T12:52:01.804Z,11.1
2023-03-21T12:55:42.548Z,11.2
2023-03-21T12:56:53.962Z,11.2
2023-03-21T12:58:06.942Z,11.2
2023-03-21T12:59:19.886Z,11.2
2023-03-21T13:00:32.846Z,11.2
2023-03-21T13:00:38.489Z,11.2
2023-03-21T13:04:12.287Z,11.3
2023-03-21T13:05:24.865Z,11.3
2023-03-21T13:06:37.941Z,11.3
2023-03-21T13:07:50.886Z,11.3
2023-03-21T13:09:08.949Z,11.3
2023-03-21T13:11:30.692Z,11.3
2023-03-21T13:12:42.626Z,11.3
2023-03-21T13:13:55.916Z,11.4
2023-03-21T13:15:15.315Z,11.4
2023-03-21T13:18:49.171Z,11.4
2023-03-21T13:20:01.065Z,11.4
2023-03-21T13:26:07.517Z,11.4
2023-03-21T13:27:19.192Z,11.4
2023-03-21T13:28:31.762Z,11.4
2023-03-21T13:30:57.905Z,11.4
2023-03-21T13:34:37.420Z,11.4
2023-03-21T13:38:15.780Z,11.6
2023-03-21T13:41:55.696Z,11.6
2023-03-21T13:49:14.141Z,11.7
2023-03-21T13:51:39.334Z,11.8
2023-03-21T13:52:51.724Z,11.8
2023-03-21T13:56:32.520Z,11.8
2023-03-21T13:58:57.537Z,11.8
2023-03-21T14:01:22.699Z,11.8
2023-03-21T14:06:14.720Z,12
2023-03-21T14:07:27.950Z,12
2023-03-21T14:12:20.854Z,12
2023-03-21T14:19:39.026Z,12.1
2023-03-21T14:22:05.067Z,12.1
2023-03-21T14:45:10.701Z,12.1
2023-03-21T15:02:12.730Z,12.2
2023-03-21T15:13:10.676Z,12.2
2023-03-21T15:15:36.255Z,12.2
2023-03-21T15:27:47.527Z,12.4
2023-03-21T15:30:11.943Z,12.4
2023-03-21T15:32:37.738Z,12.2
2023-03-21T15:46:00.693Z,12.4
2023-03-21T16:06:42.327Z,12.2
2023-03-21T16:07:54.668Z,12.2
2023-03-21T16:14:00.736Z,12.2
2023-03-21T16:48:03.841Z,12.2
2023-03-21T16:55:22.130Z,12.2
2023-03-21T16:57:48.330Z,12.2
2023-03-21T16:59:00.859Z,12.2
2023-03-21T17:02:39.981Z,12.1
2023-03-21T17:06:18.714Z,12.2
2023-03-21T17:08:44.851Z,12.2
2023-03-21T17:11:10.981Z,12.2
2023-03-21T17:12:24.554Z,12.2
2023-03-21T17:13:36.863Z,12.2
2023-03-21T17:14:50.271Z,12.2
2023-03-21T17:16:02.847Z,12.2
2023-03-21T17:17:15.848Z,12.2
2023-03-21T17:18:29.015Z,12.2
2023-03-21T17:19:41.890Z,12.2
2023-03-21T17:20:54.786Z,12.2
2023-03-21T17:23:20.820Z,12.2
2023-03-21T17:24:33.884Z,12.2
2023-03-21T17:26:59.821Z,12.2
2023-03-21T17:28:12.842Z,12.2
2023-03-21T17:29:25.678Z,12.2
2023-03-21T17:31:52.374Z,12.2
2023-03-21T17:33:04.783Z,12.2
2023-03-21T17:34:17.699Z,12.1
2023-03-21T17:35:31.056Z,12
2023-03-21T17:36:43.925Z,12
2023-03-21T17:37:56.714Z,12
2023-03-21T17:39:10.173Z,12
2023-03-21T17:40:22.842Z,12
2023-03-21T17:42:49.813Z,12
2023-03-21T17:44:01.815Z,12
2023-03-21T17:45:14.660Z,12
2023-03-21T17:46:27.870Z,12
2023-03-21T17:47:40.902Z,12
2023-03-21T17:48:53.810Z,12
2023-03-21T17:50:06.682Z,12
2023-03-21T17:51:19.814Z,12
2023-03-21T17:52:33.108Z,12
2023-03-21T17:53:45.877Z,12
2023-03-21T17:56:11.845Z,12
2023-03-21T17:57:24.776Z,12
2023-03-21T17:58:37.843Z,12
2023-03-21T18:01:03.893Z,12
2023-03-21T18:03:30.178Z,12
2023-03-21T18:04:42.886Z,12
2023-03-21T18:05:56.164Z,12
2023-03-21T18:07:12.191Z,12
2023-03-21T18:08:22.056Z,12
2023-03-21T18:09:34.692Z,12
2023-03-21T18:10:47.858Z,12
2023-03-21T18:12:00.884Z,12
2023-03-21T18:13:13.825Z,11.9
2023-03-21T18:15:39.849Z,11.8
2023-03-21T18:16:52.708Z,11.8
2023-03-21T18:18:05.802Z,11.8
2023-03-21T18:19:18.870Z,11.8
2023-03-21T18:20:51.502Z,11.8
2023-03-21T18:21:45.206Z,11.8
2023-03-21T18:24:10.532Z,11.8
2023-03-21T18:25:23.824Z,11.8
2023-03-21T18:26:36.841Z,11.8
2023-03-21T18:28:09.401Z,11.8
2023-03-21T18:29:53.808Z,11.8
2023-03-21T18:30:33.028Z,11.8
2023-03-21T18:31:28.617Z,11.8
2023-03-21T18:32:42.010Z,11.8
2023-03-21T18:33:55.412Z,11.8
2023-03-21T18:35:08.047Z,11.8
2023-03-21T18:36:25.286Z,11.8
2023-03-21T18:37:35.172Z,11.8
2023-03-21T18:38:46.845Z,11.8
2023-03-21T18:39:59.786Z,11.8
2023-03-21T18:41:12.804Z,11.8
2023-03-21T18:42:29.838Z,11.8
2023-03-21T18:44:01.035Z,11.8
2023-03-21T18:44:51.842Z,11.8
2023-03-21T18:46:04.787Z,11.8
2023-03-21T18:47:17.796Z,11.8
2023-03-21T18:48:32.356Z,11.8
2023-03-21T18:50:13.993Z,11.8
2023-03-21T18:50:56.531Z,11.8
2023-03-21T18:52:09.803Z,11.8
2023-03-21T18:53:22.824Z,11.8
2023-03-21T18:54:35.816Z,11.8
2023-03-21T18:55:51.250Z,11.8
2023-03-21T18:57:35.478Z,11.8
2023-03-21T18:58:14.988Z,11.8
2023-03-21T18:59:28.004Z,11.8
2023-03-21T19:00:41.126Z,11.8
2023-03-21T19:01:53.845Z,11.8
2023-03-21T19:03:19.079Z,11.8
2023-03-21T19:04:25.450Z,11.8
2023-03-21T19:05:32.890Z,11.8
2023-03-21T19:06:45.831Z,11.8
2023-03-21T19:07:58.838Z,11.8
2023-03-21T19:09:12.147Z,11.8
2023-03-21T19:10:24.850Z,11.9
2023-03-21T19:11:37.843Z,11.8
2023-03-21T19:12:50.826Z,11.8
2023-03-21T19:14:03.967Z,11.8
2023-03-21T19:15:16.808Z,11.8
2023-03-21T19:16:32.624Z,11.8
2023-03-21T19:18:57.166Z,11.9
2023-03-21T19:20:08.827Z,11.8
2023-03-21T19:21:21.891Z,11.8
2023-03-21T19:22:34.850Z,11.9
2023-03-21T19:24:22.714Z,11.8
2023-03-21T19:25:01.046Z,11.9
2023-03-21T19:26:13.871Z,11.9
2023-03-21T19:27:26.845Z,11.9
2023-03-21T19:30:06.780Z,11.9
2023-03-21T19:36:11.060Z,11.7
2023-03-21T19:43:32.047Z,11.7
2023-03-21T19:44:28.933Z,11.7
2023-03-21T19:45:41.718Z,11.7
2023-03-21T19:46:54.822Z,11.7
2023-03-21T19:48:07.874Z,11.7
2023-03-21T19:49:22.096Z,11.7
2023-03-21T19:51:00.421Z,11.7
2023-03-21T19:51:47.220Z,11.7
2023-03-21T19:52:59.877Z,11.7
2023-03-21T19:54:13.391Z,11.7
2023-03-21T19:55:26.059Z,11.7
2023-03-21T19:56:38.851Z,11.7
2023-03-21T19:57:51.733Z,11.7
2023-03-21T19:59:04.811Z,11.6
2023-03-21T20:00:18.743Z,11.6
2023-03-21T20:01:30.954Z,11.6
2023-03-21T20:02:43.893Z,11.6
2023-03-21T20:03:56.530Z,11.6
2023-03-21T20:05:09.839Z,11.4
2023-03-21T20:06:22.830Z,11.4
2023-03-21T20:07:35.943Z,11.4
2023-03-21T20:09:37.907Z,11.4
2023-03-21T20:10:01.869Z,11.4
2023-03-21T20:11:15.001Z,11.4
2023-03-21T20:12:28.185Z,11.4
2023-03-21T20:13:41.588Z,11.4
2023-03-21T20:15:00.983Z,11.5
2023-03-21T20:16:09.838Z,11.4
2023-03-21T20:17:19.768Z,11.4
2023-03-21T20:18:32.849Z,11.5
2023-03-21T20:19:46.029Z,11.4
2023-03-21T20:20:58.898Z,11.5
2023-03-21T20:22:21.684Z,11.5
2023-03-21T20:23:24.851Z,11.5
2023-03-21T20:24:37.865Z,11.5
2023-03-21T20:25:50.907Z,11.5
2023-03-21T20:27:04.000Z,11.3
2023-03-21T20:28:24.524Z,11.3
2023-03-21T20:30:09.032Z,11.3
2023-03-21T20:30:42.910Z,11.3
2023-03-21T20:31:55.877Z,11.3
2023-03-21T20:33:08.877Z,11.2
2023-03-21T20:34:21.888Z,11.2
2023-03-21T20:36:19.692Z,11.2
2023-03-21T20:36:48.096Z,11.2
2023-03-21T20:38:01.466Z,11.2
2023-03-21T20:39:13.728Z,11.2
2023-03-21T20:40:26.750Z,11.2
2023-03-21T20:41:39.730Z,11.2
2023-03-21T20:42:55.160Z,11.2
2023-03-21T20:44:45.104Z,11.1
2023-03-21T20:45:18.876Z,11.1
2023-03-21T20:46:31.943Z,11.1
2023-03-21T20:47:45.005Z,11.1
2023-03-21T20:48:57.979Z,10.9
2023-03-21T20:50:10.872Z,10.9
2023-03-21T20:52:29.387Z,10.9
2023-03-21T20:53:49.730Z,10.9
2023-03-21T20:55:02.925Z,10.9
2023-03-21T20:56:15.897Z,10.9
2023-03-21T20:57:28.715Z,10.9
2023-03-21T20:58:59.230Z,10.9
2023-03-21T20:59:54.911Z,10.8
2023-03-21T21:01:08.191Z,10.8
2023-03-21T21:02:21.607Z,10.8
2023-03-21T21:03:33.881Z,10.8
2023-03-21T21:05:12.071Z,10.8
2023-03-21T21:05:59.927Z,10.8
2023-03-21T21:07:13.218Z,10.8
2023-03-21T21:08:25.911Z,10.8
2023-03-21T21:09:38.852Z,10.8
2023-03-21T21:11:27.624Z,10.7
2023-03-21T21:12:07.529Z,10.8
2023-03-21T21:13:17.874Z,10.8
2023-03-21T21:14:30.863Z,10.8
2023-03-21T21:15:43.943Z,10.8
2023-03-21T21:16:56.890Z,10.8
2023-03-21T21:18:10.553Z,10.8
2023-03-21T21:19:22.887Z,10.8
2023-03-21T21:20:36.651Z,10.7
2023-03-21T21:21:48.899Z,10.7
2023-03-21T21:23:01.904Z,10.7
2023-03-21T21:25:28.395Z,10.7
2023-03-21T21:26:40.719Z,10.7
2023-03-21T21:27:53.904Z,10.7
2023-03-21T21:29:06.758Z,10.7
2023-03-21T21:30:19.895Z,10.7
2023-03-21T21:31:33.083Z,10.7
2023-03-21T21:32:45.723Z,10.7
2023-03-21T21:33:58.584Z,10.5
2023-03-21T21:35:11.904Z,10.5
2023-03-21T21:36:24.975Z,10.6
2023-03-21T21:37:37.823Z,10.6
2023-03-21T21:38:50.762Z,10.5
2023-03-21T21:40:03.924Z,10.4
2023-03-21T21:41:17.184Z,10.4
2023-03-21T21:43:43.296Z,10.4
2023-03-21T21:44:55.898Z,10.4
2023-03-21T21:46:08.926Z,10.4
2023-03-21T21:47:21.939Z,10.4
2023-03-21T21:49:47.923Z,10.4
2023-03-21T21:51:00.812Z,10.4
2023-03-21T21:52:13.949Z,10.4
2023-03-21T21:57:05.867Z,10.4
2023-03-21T21:58:18.942Z,10.4
2023-03-21T21:59:31.914Z,10.4
2023-03-21T22:03:10.981Z,10.4
2023-03-21T22:04:24.549Z,10.4
2023-03-21T22:05:36.729Z,10.6
2023-03-21T22:08:03.259Z,10.6
2023-03-21T22:09:16.012Z,10.6
2023-03-21T22:10:28.926Z,10.6
2023-03-21T22:11:41.587Z,10.6
2023-03-21T22:12:54.927Z,10.6
2023-03-21T22:14:08.293Z,10.5
2023-03-21T22:15:20.930Z,10.5
2023-03-21T22:16:33.822Z,10.5
2023-03-21T22:17:46.983Z,10.5
2023-03-21T22:18:59.894Z,10.6
2023-03-21T22:20:12.708Z,10.7
2023-03-21T22:22:38.934Z,10.7
2023-03-21T22:23:51.689Z,10.7